地図

経路データ

SID SEASON NUMBER BASIN SUBBASIN NAME ISO_TIME NATURE LAT LON WMO_WIND WMO_PRES WMO_AGENCY TRACK_TYPE DIST2LAND LANDFALL IFLAG USA_AGENCY USA_ATCF_ID USA_LAT USA_LON USA_RECORD USA_STATUS USA_WIND USA_PRES USA_SSHS USA_R34_NE USA_R34_SE USA_R34_SW USA_R34_NW USA_R50_NE USA_R50_SE USA_R50_SW USA_R50_NW USA_R64_NE USA_R64_SE USA_R64_SW USA_R64_NW USA_POCI USA_ROCI USA_RMW USA_EYE TOKYO_LAT TOKYO_LON TOKYO_GRADE TOKYO_WIND TOKYO_PRES TOKYO_R50_DIR TOKYO_R50_LONG TOKYO_R50_SHORT TOKYO_R30_DIR TOKYO_R30_LONG TOKYO_R30_SHORT TOKYO_LAND CMA_LAT CMA_LON CMA_CAT CMA_WIND CMA_PRES HKO_LAT HKO_LON HKO_CAT HKO_WIND HKO_PRES NEWDELHI_LAT NEWDELHI_LON NEWDELHI_GRADE NEWDELHI_WIND NEWDELHI_PRES NEWDELHI_CI NEWDELHI_DP NEWDELHI_POCI REUNION_LAT REUNION_LON REUNION_TYPE REUNION_WIND REUNION_PRES REUNION_TNUM REUNION_CI REUNION_RMW REUNION_R34_NE REUNION_R34_SE REUNION_R34_SW REUNION_R34_NW REUNION_R50_NE REUNION_R50_SE REUNION_R50_SW REUNION_R50_NW REUNION_R64_NE REUNION_R64_SE REUNION_R64_SW REUNION_R64_NW BOM_LAT BOM_LON BOM_TYPE BOM_WIND BOM_PRES BOM_TNUM BOM_CI BOM_RMW BOM_R34_NE BOM_R34_SE BOM_R34_SW BOM_R34_NW BOM_R50_NE BOM_R50_SE BOM_R50_SW BOM_R50_NW BOM_R64_NE BOM_R64_SE BOM_R64_SW BOM_R64_NW BOM_ROCI BOM_POCI BOM_EYE BOM_POS_METHOD BOM_PRES_METHOD NADI_LAT NADI_LON NADI_CAT NADI_WIND NADI_PRES WELLINGTON_LAT WELLINGTON_LON WELLINGTON_WIND WELLINGTON_PRES DS824_LAT DS824_LON DS824_STAGE DS824_WIND DS824_PRES TD9636_LAT TD9636_LON TD9636_STAGE TD9636_WIND TD9636_PRES TD9635_LAT TD9635_LON TD9635_WIND TD9635_PRES TD9635_ROCI NEUMANN_LAT NEUMANN_LON NEUMANN_CLASS NEUMANN_WIND NEUMANN_PRES MLC_LAT MLC_LON MLC_CLASS MLC_WIND MLC_PRES USA_GUST BOM_GUST BOM_GUST_PER REUNION_GUST REUNION_GUST_PER USA_SEAHGT USA_SEARAD_NE USA_SEARAD_SE USA_SEARAD_SW USA_SEARAD_NW STORM_SPEED STORM_DIR
1890264N14117 1890 27 WP MM NOT_NAMED 1890-09-20 16:00:00 NR 13.5000 116.500 main 407 407 __________O___ -1 13.5000 116.500 4 6 274
1890264N14117 1890 27 WP MM NOT_NAMED 1890-09-20 18:00:00 NR 13.5137 116.312 main 424 424 __________P___ -1 13.5137 116.312 4 5 274
1890264N14117 1890 27 WP MM NOT_NAMED 1890-09-20 21:00:00 NR 13.5352 116.037 main 450 450 __________P___ -1 13.5352 116.037 4 5 275
1890264N14117 1890 27 WP MM NOT_NAMED 1890-09-21 00:00:00 NR 13.5595 115.784 main 474 474 __________P___ -1 13.5595 115.784 4 5 277
1890264N14117 1890 27 WP MM NOT_NAMED 1890-09-21 03:00:00 NR 13.5888 115.564 main 492 492 __________P___ -1 13.5888 115.564 4 4 278
1890264N14117 1890 27 WP MM NOT_NAMED 1890-09-21 04:00:00 NR 13.6000 115.500 main 501 501 __________O___ -1 13.6000 115.500 4 3 282
1890264N14117 1890 27 WP MM NOT_NAMED 1890-09-21 06:00:00 NR 13.6249 115.388 main 511 511 __________P___ -1 13.6249 115.388 4 3 286
1890264N14117 1890 27 WP MM NOT_NAMED 1890-09-21 09:00:00 NR 13.6686 115.252 main 526 535 __________P___ -1 13.6686 115.252 4 3 291
1890264N14117 1890 27 WP MM NOT_NAMED 1890-09-21 12:00:00 NR 13.7199 115.139 main 544 544 __________P___ -1 13.7199 115.139 4 2 298
1890264N14117 1890 27 WP MM NOT_NAMED 1890-09-21 15:00:00 NR 13.7787 115.035 main 557 557 __________P___ -1 13.7787 115.035 4 2 300
1890264N14117 1890 27 WP MM NOT_NAMED 1890-09-21 16:00:00 NR 13.8000 115.000 main 557 557 __________O___ -1 13.8000 115.000 4 3 294
1890264N14117 1890 27 WP MM NOT_NAMED 1890-09-21 18:00:00 NR 13.8312 114.914 main 567 563 __________P___ -1 13.8312 114.914 4 3 292
1890264N14117 1890 27 WP MM NOT_NAMED 1890-09-21 21:00:00 NR 13.8839 114.785 main 573 573 __________P___ -1 13.8839 114.785 4 3 297
1890264N14117 1890 27 WP MM NOT_NAMED 1890-09-22 00:00:00 NR 13.9551 114.659 main 575 557 __________P___ -1 13.9551 114.659 4 3 306
1890264N14117 1890 27 WP MM NOT_NAMED 1890-09-22 03:00:00 NR 14.0570 114.538 main 557 557 __________P___ -1 14.0570 114.538 4 3 314
1890264N14117 1890 27 WP MM NOT_NAMED 1890-09-22 04:00:00 NR 14.1000 114.500 main 557 549 __________O___ -1 14.1000 114.500 4 4 322
1890264N14117 1890 27 WP MM NOT_NAMED 1890-09-22 06:00:00 NR 14.1995 114.422 main 549 541 __________P___ -1 14.1995 114.422 4 4 327
1890264N14117 1890 27 WP MM NOT_NAMED 1890-09-22 09:00:00 NR 14.3803 114.312 main 542 532 __________P___ -1 14.3803 114.312 4 4 333
1890264N14117 1890 27 WP MM NOT_NAMED 1890-09-22 12:00:00 NR 14.5904 114.212 main 534 527 __________P___ -1 14.5904 114.212 4 5 338
1890264N14117 1890 27 WP MM NOT_NAMED 1890-09-22 15:00:00 NR 14.8205 114.125 main 527 527 __________P___ -1 14.8205 114.125 4 5 340
1890264N14117 1890 27 WP MM NOT_NAMED 1890-09-22 16:00:00 NR 14.9000 114.100 main 529 529 __________O___ -1 14.9000 114.100 4 5 344
1890264N14117 1890 27 WP MM NOT_NAMED 1890-09-22 18:00:00 NR 15.0579 114.053 main 534 523 __________P___ -1 15.0579 114.053 4 5 346
1890264N14117 1890 27 WP MM NOT_NAMED 1890-09-22 21:00:00 NR 15.3073 113.994 main 529 508 __________P___ -1 15.3073 113.994 4 5 349
1890264N14117 1890 27 WP MM NOT_NAMED 1890-09-23 00:00:00 NR 15.5637 113.948 main 508 492 __________P___ -1 15.5637 113.948 4 5 352
1890264N14117 1890 27 WP MM NOT_NAMED 1890-09-23 03:00:00 NR 15.8176 113.911 main 492 485 __________P___ -1 15.8176 113.911 4 5 354
1890264N14117 1890 27 WP MM NOT_NAMED 1890-09-23 04:00:00 NR 15.9000 113.900 main 485 470 __________O___ -1 15.9000 113.900 4 5 354
1890264N14117 1890 27 WP MM NOT_NAMED 1890-09-23 06:00:00 NR 16.0504 113.888 main 470 456 __________P___ -1 16.0504 113.888 4 4 0
1890264N14117 1890 27 WP MM NOT_NAMED 1890-09-23 09:00:00 NR 16.2697 113.877 main 456 442 __________P___ -1 16.2697 113.877 4 4 0
1890264N14117 1890 27 WP MM NOT_NAMED 1890-09-23 12:00:00 NR 16.4896 113.859 main 442 421 __________P___ -1 16.4896 113.859 4 5 353
1890264N14117 1890 27 WP MM NOT_NAMED 1890-09-23 15:00:00 NR 16.7195 113.820 main 421 414 __________P___ -1 16.7195 113.820 4 5 349
1890264N14117 1890 27 WP MM NOT_NAMED 1890-09-23 16:00:00 NR 16.8000 113.800 main 414 394 __________O___ -1 16.8000 113.800 4 6 346
1890264N14117 1890 27 WP MM NOT_NAMED 1890-09-23 18:00:00 NR 16.9876 113.745 main 394 368 __________P___ -1 16.9876 113.745 4 6 342
1890264N14117 1890 27 WP MM NOT_NAMED 1890-09-23 21:00:00 NR 17.2821 113.637 main 368 343 __________P___ -1 17.2821 113.637 4 6 338
1890264N14117 1890 27 WP MM NOT_NAMED 1890-09-24 00:00:00 NR 17.5699 113.504 main 343 323 __________P___ -1 17.5699 113.504 4 6 333
1890264N14117 1890 27 WP MM NOT_NAMED 1890-09-24 03:00:00 NR 17.8260 113.353 main 323 307 __________P___ -1 17.8260 113.353 4 6 329
1890264N14117 1890 27 WP MM NOT_NAMED 1890-09-24 04:00:00 NR 17.9000 113.300 main 307 292 __________O___ -1 17.9000 113.300 4 5 324
1890264N14117 1890 27 WP MM NOT_NAMED 1890-09-24 06:00:00 NR 18.0228 113.203 main 292 262 __________P___ -1 18.0228 113.203 4 4 318
1890264N14117 1890 27 WP MM NOT_NAMED 1890-09-24 09:00:00 NR 18.1692 113.044 main 262 247 __________P___ -1 18.1692 113.044 4 4 309
1890264N14117 1890 27 WP MM NOT_NAMED 1890-09-24 12:00:00 NR 18.2816 112.868 main 247 223 __________P___ -1 18.2816 112.868 4 4 300
1890264N14117 1890 27 WP MM NOT_NAMED 1890-09-24 15:00:00 NR 18.3724 112.671 main 223 215 __________P___ -1 18.3724 112.671 4 4 295
1890264N14117 1890 27 WP MM NOT_NAMED 1890-09-24 16:00:00 NR 18.4000 112.600 main 215 199 __________O___ -1 18.4000 112.600 4 4 291
1890264N14117 1890 27 WP MM NOT_NAMED 1890-09-24 18:00:00 NR 18.4535 112.450 main 199 176 __________P___ -1 18.4535 112.450 4 5 289
1890264N14117 1890 27 WP MM NOT_NAMED 1890-09-24 21:00:00 NR 18.5305 112.209 main 176 153 __________P___ -1 18.5305 112.209 4 5 288
1890264N14117 1890 27 WP MM NOT_NAMED 1890-09-25 00:00:00 NR 18.6043 111.953 main 153 120 __________P___ -1 18.6043 111.953 4 5 286
1890264N14117 1890 27 WP MM NOT_NAMED 1890-09-25 03:00:00 NR 18.6763 111.689 main 120 110 __________P___ -1 18.6763 111.689 4 5 286
1890264N14117 1890 27 WP MM NOT_NAMED 1890-09-25 04:00:00 NR 18.7000 111.600 main 110 __________O___ -1 18.7000 111.600 7 5 286

デジタル台風データ・検索

IBTrACS Databaseについて

本データベースは、米国NOAAが公開する1842年以降の世界の熱帯低気圧のベストトラックデータアーカイブInternational Best Track Archive for Climate Stewardship (IBTrACS)を、ウェブで閲覧しやすい形式に変換したものです。

最終更新日:2021-10-27